Time;durP1;ratioP1;P1;durP2;ratioP2;P2;SDS_P1;SDS_P2;PMS_P1;PMS_P2;Temp;Humidity;BMP_temperature;BMP_pressure;BME280_temperature;BME280_humidity;BME280_pressure;Samples;Min_cycle;Max_cycle;Signal;HPM_P1;HPM_P2
2022/10/17 07:14:06;;;;;;;;;;;14.20;99.90;;;;;;6233781;22;20359;31
2022/10/17 08:31:07;;;;;;;;;;;15.40;99.90;;;;;;6308789;22;19945;-76
2022/10/17 08:43:41;;;;;;;;;;;;;;;;;;;;;
2022/10/17 08:50:52;;;;;;;;;;;15.50;99.90;;;;;;6108130;22;19957;-74
2022/10/17 08:53:54;;;;;;;;;;;15.50;99.90;;;;;;6134273;23;19975;-76
2022/10/17 09:53:20;;;;;;;;;;;15.30;99.90;;;;;;6276348;22;19915;-75
2022/10/17 10:06:03;;;;;;;;;;;15.40;99.90;;;;;;6068708;23;19938;-72
2022/10/17 10:08:36;;;;;;;;;;;15.40;99.90;;;;;;6103615;23;19912;-70
2022/10/17 10:11:13;;;;;;;;;;;15.40;99.90;;;;;;6127634;23;19991;-71
2022/10/17 10:13:56;;;;;;;;;;;15.40;99.90;;;;;;6128255;23;20303;-70
2022/10/17 10:16:28;;;;;;;;;;;15.40;99.90;;;;;;6152496;23;19920;-72
2022/10/17 10:18:54;;;;;;;;;;;15.40;99.90;;;;;;6127836;23;19987;-71
2022/10/17 10:25:10;;;;;;;;;;;15.50;99.90;;;;;;6004773;23;19918;-73
2022/10/17 10:27:39;;;;;;;;;;;15.50;99.90;;;;;;6183152;23;19966;-71
2022/10/17 10:40:17;;;;;;;;;;;15.70;99.90;;;;;;6083090;23;20035;-72
2022/10/17 10:42:46;;;;;;;;;;;15.70;99.90;;;;;;6209702;23;19912;-71
2022/10/17 10:45:26;;;;;;;;;;;15.80;99.90;;;;;;6218159;23;19912;-71
2022/10/17 10:47:53;;;;;;;;;;;15.90;99.90;;;;;;6218372;23;19955;-72
2022/10/17 10:50:19;;;;;;;;;;;15.90;99.90;;;;;;6193303;23;20219;-72
2022/10/17 10:52:48;;;;;;;;;;;15.90;99.90;;;;;;6246264;23;19939;-73
2022/10/17 10:55:21;;;;;;;;;;;15.90;99.90;;;;;;6221115;23;19981;-71
2022/10/17 10:57:57;;;;;;;;;;;15.90;99.90;;;;;;6207740;23;19923;-74
2022/10/17 11:00:27;;;;;;;;;;;15.90;99.90;;;;;;6245719;22;19910;-71
2022/10/17 11:03:03;;;;;;;;;;;15.90;99.90;;;;;;6223390;22;19934;-74
2022/10/17 11:05:38;;;;;;;;;;;15.70;99.90;;;;;;6224613;23;19950;-72
2022/10/17 11:08:27;;;;;;;;;;;15.90;99.90;;;;;;6229330;23;20282;-71
2022/10/17 11:11:16;;;;;;;;;;;15.90;99.90;;;;;;6196740;23;19912;-73
2022/10/17 11:14:03;;;;;;;;;;;15.80;99.90;;;;;;6221602;23;19919;-73
2022/10/17 11:16:51;;;;;;;;;;;15.90;99.90;;;;;;6196234;23;20234;-74
2022/10/17 11:19:24;;;;;;;;;;;15.90;99.90;;;;;;6221230;23;19986;-73
2022/10/17 11:22:08;;;;;;;;;;;15.80;99.90;;;;;;6221135;23;19916;-74
2022/10/17 11:24:39;;;;;;;;;;;15.90;99.90;;;;;;6220964;23;19912;-73
2022/10/17 11:27:06;;;;;;;;;;;16.00;99.90;;;;;;6195957;23;19915;-74
2022/10/17 11:29:37;;;;;;;;;;;16.10;99.90;;;;;;6196362;23;19947;-75
2022/10/17 11:32:14;;;;;;;;;;;16.10;99.90;;;;;;6195796;23;19939;-76
2022/10/17 11:34:45;;;;;;;;;;;16.10;99.90;;;;;;6196359;23;19916;-73
2022/10/17 11:37:13;;;;;;;;;;;16.20;99.90;;;;;;6221279;23;19917;-75
2022/10/17 11:40:09;;;;;;;;;;;16.20;99.90;;;;;;6195805;23;19987;-73
2022/10/17 11:50:24;;;;;;;;;;;16.10;99.90;;;;;;6153899;23;19961;-73
2022/10/17 11:56:51;;;;;;;;;;;16.20;99.90;;;;;;6184612;23;19916;-74
2022/10/17 11:59:16;;;;;;;;;;;16.00;99.90;;;;;;6135129;23;20327;-76
2022/10/17 12:02:16;;;;;;;;;;;15.90;99.90;;;;;;6230263;23;19991;-73
2022/10/17 12:05:21;;;;;;;;;;;15.90;99.90;;;;;;6196004;23;19951;-73
2022/10/17 12:08:22;;;;;;;;;;;15.90;99.90;;;;;;6220400;23;20328;-73
2022/10/17 12:11:53;;;;;;;;;;;15.90;99.90;;;;;;6214441;23;19958;-74
2022/10/17 12:21:34;;;;;;;;;;;16.00;99.90;;;;;;6178699;23;19955;-73
2022/10/17 12:27:51;;;;;;;;;;;15.90;99.90;;;;;;6095675;23;19917;-73
2022/10/17 12:38:09;;;;;;;;;;;;;;;;;;;;;
2022/10/17 12:41:27;;;;;;;;;;;16.10;99.90;;;;;;6219867;23;19915;-72
2022/10/17 12:44:22;;;;;;;;;;;16.30;99.90;;;;;;6075093;23;19924;-74
2022/10/17 12:58:12;;;;;;;;;;;16.40;99.90;;;;;;6242040;23;19918;-73
2022/10/17 13:00:56;;;;;;;;;;;16.30;99.90;;;;;;6246892;23;20314;-74
2022/10/17 13:03:27;;;;;;;;;;;16.30;99.90;;;;;;6195379;23;20318;-72
2022/10/17 13:06:13;;;;;;;;;;;16.30;99.90;;;;;;6194901;23;19912;-74
2022/10/17 13:08:42;;;;;;;;;;;16.30;99.90;;;;;;6195020;23;19942;-71
2022/10/17 13:11:08;;;;;;;;;;;16.30;99.90;;;;;;6194872;23;19922;-75
2022/10/17 13:13:34;;;;;;;;;;;16.30;99.90;;;;;;6194556;22;19950;-74
2022/10/17 13:15:59;;;;;;;;;;;16.30;99.90;;;;;;6245677;23;19923;-74
2022/10/17 13:18:26;;;;;;;;;;;16.30;99.90;;;;;;6194922;23;19916;-73
2022/10/17 13:20:58;;;;;;;;;;;16.40;99.90;;;;;;6220424;23;19919;-74
2022/10/17 13:23:24;;;;;;;;;;;16.40;99.90;;;;;;6245627;23;20207;-74
2022/10/17 13:26:03;;;;;;;;;;;16.40;99.90;;;;;;6195182;23;19916;-76
2022/10/17 13:28:29;;;;;;;;;;;16.40;99.90;;;;;;6195363;23;19969;-76
2022/10/17 13:30:54;;;;;;;;;;;16.30;99.90;;;;;;6245688;23;19916;-76
2022/10/17 13:33:39;;;;;;;;;;;16.30;99.90;;;;;;6245542;23;20318;-75
2022/10/17 13:36:14;;;;;;;;;;;16.30;99.90;;;;;;6195193;23;19981;-76
2022/10/17 13:38:40;;;;;;;;;;;16.30;99.90;;;;;;6220545;23;19916;-76
2022/10/17 13:41:10;;;;;;;;;;;16.30;99.90;;;;;;6220351;23;19922;-76
2022/10/17 13:43:35;;;;;;;;;;;16.30;99.90;;;;;;6195109;22;19915;-74
2022/10/17 13:46:04;;;;;;;;;;;16.30;99.90;;;;;;6195237;23;19919;-75
2022/10/17 13:48:31;;;;;;;;;;;16.30;99.90;;;;;;6195274;23;20345;-75
2022/10/17 13:51:01;;;;;;;;;;;16.40;99.90;;;;;;6195055;23;19916;-76
2022/10/17 13:53:42;;;;;;;;;;;16.40;99.90;;;;;;6220084;23;19916;-73
2022/10/17 13:56:11;;;;;;;;;;;16.40;99.90;;;;;;6172693;23;19915;-74
2022/10/17 13:58:40;;;;;;;;;;;16.30;99.90;;;;;;6189869;23;19916;-72
2022/10/17 14:01:06;;;;;;;;;;;16.30;99.90;;;;;;6189943;23;19923;-71
2022/10/17 14:03:32;;;;;;;;;;;16.30;99.90;;;;;;6214854;23;19923;-71
2022/10/17 14:06:04;;;;;;;;;;;16.40;99.90;;;;;;6164472;23;19923;-73
2022/10/17 14:08:30;;;;;;;;;;;16.40;99.90;;;;;;6164807;23;19923;-72
2022/10/17 14:11:02;;;;;;;;;;;16.40;99.90;;;;;;6190284;23;20315;-76
2022/10/17 14:13:30;;;;;;;;;;;16.40;99.90;;;;;;6165053;23;19923;-73
2022/10/17 14:15:58;;;;;;;;;;;16.40;99.90;;;;;;6189743;23;19916;-73
2022/10/17 14:18:31;;;;;;;;;;;16.40;99.90;;;;;;6189367;23;20038;-74
2022/10/17 14:21:01;;;;;;;;;;;16.50;99.90;;;;;;6216218;23;19916;-74
2022/10/17 14:23:36;;;;;;;;;;;16.40;99.90;;;;;;6166105;23;20105;-74
2022/10/17 14:53:29;;;;;;;;;;;16.40;99.90;;;;;;6040714;23;20343;-74
2022/10/17 14:56:20;;;;;;;;;;;16.40;99.90;;;;;;6056782;23;20313;-74
2022/10/17 14:59:26;;;;;;;;;;;;;;;;;;;;;
2022/10/17 15:02:42;;;;;;;;;;;16.20;99.90;;;;;;6044149;23;20388;-73
2022/10/17 15:05:45;;;;;;;;;;;16.10;99.90;;;;;;6018816;23;19921;-72
2022/10/17 15:12:26;;;;;;;;;;;;;;;;;;;;;
2022/10/17 15:15:10;;;;;;;;;;;16.10;99.90;;;;;;6038316;23;20047;-74
2022/10/17 15:17:36;;;;;;;;;;;16.10;99.90;;;;;;6038578;23;20345;-74
2022/10/17 15:20:25;;;;;;;;;;;16.00;99.90;;;;;;5982475;24;20019;-73
2022/10/17 15:23:09;;;;;;;;;;;16.00;99.90;;;;;;5936236;24;19915;-74
2022/10/17 15:25:59;;;;;;;;;;;16.00;99.90;;;;;;5959902;24;19996;-73
2022/10/17 15:39:00;;;;;;;;;;;15.90;99.90;;;;;;5954014;24;19921;-79
2022/10/17 16:25:58;;;;;;;;;;;15.20;99.90;;;;;;6289801;22;19927;-76
2022/10/17 16:28:24;;;;;;;;;;;15.20;99.90;;;;;;6204929;22;19947;-71
2022/10/17 16:31:12;;;;;;;;;;;15.10;99.90;;;;;;6277814;22;19923;-72
2022/10/17 16:33:37;;;;;;;;;;;15.00;99.90;;;;;;6305240;22;19903;-76
2022/10/17 16:36:03;;;;;;;;;;;15.00;99.90;;;;;;6293350;22;19922;-73
2022/10/17 16:38:28;;;;;;;;;;;14.90;99.90;;;;;;6252203;22;19942;-74
2022/10/17 16:40:54;;;;;;;;;;;14.90;99.90;;;;;;6276877;22;19963;-75
2022/10/17 16:43:19;;;;;;;;;;;14.80;99.90;;;;;;6225585;22;19911;-75
2022/10/17 16:45:45;;;;;;;;;;;14.70;99.90;;;;;;6251061;22;20261;-74
2022/10/17 16:48:11;;;;;;;;;;;14.70;99.90;;;;;;6276149;22;19943;-77
2022/10/17 16:50:39;;;;;;;;;;;14.60;99.90;;;;;;6250575;22;19966;-74
2022/10/17 16:53:05;;;;;;;;;;;14.60;99.90;;;;;;6251199;22;19943;-74
2022/10/17 16:55:31;;;;;;;;;;;14.60;99.90;;;;;;6276094;22;20207;-74
2022/10/17 16:57:56;;;;;;;;;;;14.50;99.90;;;;;;6250540;22;20314;-73
2022/10/17 17:00:28;;;;;;;;;;;14.50;99.90;;;;;;6250798;22;19942;-76
2022/10/17 17:02:57;;;;;;;;;;;14.40;99.90;;;;;;6250912;22;19986;-74
2022/10/17 17:05:25;;;;;;;;;;;14.40;99.90;;;;;;6250320;22;20272;-75
2022/10/17 17:07:53;;;;;;;;;;;14.30;99.90;;;;;;6250519;22;19915;-76
2022/10/17 17:10:22;;;;;;;;;;;14.30;99.90;;;;;;6251547;22;20220;-76
2022/10/17 17:12:47;;;;;;;;;;;14.30;99.90;;;;;;6250771;22;19946;-75
2022/10/17 17:15:13;;;;;;;;;;;14.30;99.90;;;;;;6276268;22;19911;-74
2022/10/17 17:17:41;;;;;;;;;;;14.20;99.90;;;;;;6249794;22;19969;-76
2022/10/17 17:20:07;;;;;;;;;;;14.20;99.90;;;;;;6250710;22;20234;-74
2022/10/17 17:22:33;;;;;;;;;;;14.10;99.90;;;;;;6250718;22;19918;-74
2022/10/17 17:25:05;;;;;;;;;;;14.10;99.90;;;;;;6275649;22;19934;-74
2022/10/17 17:27:48;;;;;;;;;;;14.00;99.90;;;;;;6252134;22;20383;-77
2022/10/17 17:30:17;;;;;;;;;;;14.00;99.90;;;;;;6275296;22;20352;-78
2022/10/17 17:32:45;;;;;;;;;;;14.00;99.90;;;;;;6250337;22;19958;-75
2022/10/17 17:35:11;;;;;;;;;;;14.10;99.90;;;;;;6250618;22;19912;-74
2022/10/17 17:37:43;;;;;;;;;;;14.00;99.90;;;;;;6275964;22;20383;-75
2022/10/17 17:40:09;;;;;;;;;;;14.00;99.90;;;;;;6251582;22;20247;-76
2022/10/17 17:42:34;;;;;;;;;;;14.00;99.90;;;;;;6251590;22;19911;-75
2022/10/17 17:45:03;;;;;;;;;;;14.00;99.90;;;;;;6275967;22;19911;-78
2022/10/17 17:51:13;;;;;;;;;;;13.90;99.90;;;;;;6277025;22;20033;-78
2022/10/17 18:00:12;;;;;;;;;;;13.80;99.90;;;;;;6275619;22;19914;-72
2022/10/17 18:02:38;;;;;;;;;;;13.80;99.90;;;;;;6275082;22;20069;-74
2022/10/17 18:05:04;;;;;;;;;;;13.80;99.90;;;;;;6248715;22;19911;-74
2022/10/17 18:07:29;;;;;;;;;;;13.70;99.90;;;;;;6274659;22;19915;-76
2022/10/17 18:09:55;;;;;;;;;;;13.80;99.90;;;;;;6274628;22;20273;-73
2022/10/17 18:18:18;;;;;;;;;;;13.70;99.90;;;;;;6273264;22;19962;-72
2022/10/17 18:20:44;;;;;;;;;;;13.70;99.90;;;;;;6279648;22;19922;-76
2022/10/17 18:23:10;;;;;;;;;;;13.70;99.90;;;;;;6279812;22;19919;-74
2022/10/17 18:25:46;;;;;;;;;;;13.70;99.90;;;;;;6278192;22;19911;-76
2022/10/17 18:28:11;;;;;;;;;;;13.60;99.90;;;;;;6253815;22;19910;-73
2022/10/17 18:30:49;;;;;;;;;;;13.60;99.90;;;;;;6279131;22;19917;-81
2022/10/17 18:33:38;;;;;;;;;;;13.60;99.90;;;;;;6279145;22;20360;-74
2022/10/17 18:36:07;;;;;;;;;;;13.50;99.90;;;;;;6253228;22;20239;-78
2022/10/17 18:41:55;;;;;;;;;;;13.50;99.90;;;;;;6306539;22;19989;-74
2022/10/17 18:44:21;;;;;;;;;;;13.50;99.90;;;;;;6253927;22;20324;-75
2022/10/17 18:46:58;;;;;;;;;;;13.40;99.90;;;;;;6253958;22;20229;-76
2022/10/17 19:09:49;;;;;;;;;;;13.20;99.90;;;;;;6307406;22;19914;-77
2022/10/17 19:15:55;;;;;;;;;;;13.20;99.90;;;;;;6308212;22;19986;-73
2022/10/17 19:21:40;;;;;;;;;;;13.10;99.90;;;;;;6184050;23;19920;-75
2022/10/17 19:57:50;;;;;;;;;;;12.90;99.90;;;;;;6281469;22;19931;-74
2022/10/17 20:00:23;;;;;;;;;;;12.90;99.90;;;;;;6255971;22;19922;-71
2022/10/17 20:02:48;;;;;;;;;;;12.80;99.90;;;;;;6253469;22;19915;-71
2022/10/17 20:08:36;;;;;;;;;;;12.80;99.90;;;;;;6271328;22;19911;-72
2022/10/17 20:11:31;;;;;;;;;;;12.80;99.90;;;;;;6188658;23;19934;-71
2022/10/17 20:13:58;;;;;;;;;;;12.80;99.90;;;;;;6154576;23;19912;-73
2022/10/17 21:05:30;;;;;;;;;;;12.40;99.90;;;;;;6250669;22;19911;-77
2022/10/17 21:07:56;;;;;;;;;;;12.40;99.90;;;;;;6274928;22;19919;-72
2022/10/17 21:10:33;;;;;;;;;;;12.40;99.90;;;;;;6275516;22;20288;-73
2022/10/17 21:30:22;;;;;;;;;;;12.30;99.90;;;;;;5952778;24;19936;-74
2022/10/17 21:57:08;;;;;;;;;;;;;;;;;;;;;
2022/10/17 22:56:13;;;;;;;;;;;11.40;99.90;;;;;;5988720;23;19913;-76
2022/10/17 23:03:17;;;;;;;;;;;11.60;99.90;;;;;;5878501;24;19965;-75
2022/10/17 23:54:12;;;;;;;;;;;;;;;;;;;;;
2022/10/17 23:57:43;;;;;;;;;;;;;;;;;;;;;
